Scala — A8HS9 — position and weather

sailwx.info

Track history (hours):
 
Tides and Currents Weather Stations Pressure Air Temp Water Temp Dewpoint Dewpoint Depression Visibility Wind Speed Wind Dir Waves Ship Positions

Scala

Last reported at 2017-Oct-21 12:50 UTC. Time now 2017-Oct-22 19:11 UTC.
Position N 45°08' E 029°48'.

Length 115 m; draft 3.1 m.

Type: Cargo ship. MMSI: 636012769.

Date/timePositionNaut miles runAvg speedWind from/ knotsBaromVisibWave heightAir tempDewpointWater temp
2017-Oct-21 12:50N 45°08' E 029°48'78 9.8
2017-Oct-21 04:54N 43°51' E 029°43'510.3
2017-Oct-21 04:26N 43°46' E 029°42'510.2
2017-Oct-21 03:59N 43°42' E 029°41'510.2
2017-Oct-21 03:31N 43°37' E 029°40'510.1
2017-Oct-21 03:00N 43°32' E 029°39'5 9.9
2017-Oct-21 02:30N 43°27' E 029°38'5 9.6
2017-Oct-21 02:01N 43°22' E 029°37'5 9.5
2017-Oct-21 01:30N 43°17' E 029°36'5 9.7
2017-Oct-21 01:00N 43°13' E 029°35'5 9.9
2017-Oct-21 00:30N 43°08' E 029°34'510.1
2017-Oct-21 00:00N 43°03' E 029°33'510.3
2017-Oct-20 23:30N 42°58' E 029°32'510.1
2017-Oct-20 23:00N 42°53' E 029°31'510.0
2017-Oct-20 22:31N 42°48' E 029°30'510.0
2017-Oct-20 22:01N 42°43' E 029°29'510.0
2017-Oct-20 21:31N 42°38' E 029°28'510.2
2017-Oct-20 21:01N 42°33' E 029°27'510.3
2017-Oct-20 20:30N 42°28' E 029°26'510.4
2017-Oct-20 20:00N 42°23' E 029°25'510.2
2017-Oct-20 19:30N 42°17' E 029°24'510.3
2017-Oct-20 19:00N 42°12' E 029°22'510.2
2017-Oct-20 18:30N 42°08' E 029°21'510.2
2017-Oct-20 18:00N 42°03' E 029°19'510.3
2017-Oct-20 17:30N 41°58' E 029°18'510.2
2017-Oct-20 17:01N 41°52' E 029°18'510.4
2017-Oct-20 16:31N 41°47' E 029°18'510.0
2017-Oct-20 16:00N 41°42' E 029°17'5 9.7
2017-Oct-20 15:30N 41°37' E 029°17'5 9.5
2017-Oct-20 15:01N 41°33' E 029°16'5 9.2
2017-Oct-20 14:31N 41°28' E 029°15'9 9.3
2017-Oct-20 13:31N 41°19' E 029°12'5 9.8
2017-Oct-20 13:00N 41°15' E 029°09'19 1.4
2017-Oct-19 23:48N 40°58' E 028°56'0 0.0
2017-Oct-19 18:27N 40°58' E 028°56'7 0.8
2017-Oct-19 09:30N 40°52' E 028°52'3010.6
2017-Oct-19 06:39N 40°47' E 028°13'210.2
2017-Oct-19 06:30N 40°46' E 028°11'510.2
2017-Oct-19 06:00N 40°46' E 028°04'126 8.8
2017-Oct-18 15:41N 39°39' E 025°44'262 5.7
2017-Oct-16 17:31N 37°16' E 021°04'010.4
2017-Oct-16 17:30N 37°16' E 021°04'6210.8
2017-Oct-16 11:43N 38°06' E 020°16'510.9
2017-Oct-16 11:14N 38°10' E 020°12'210.6
2017-Oct-16 11:00N 38°12' E 020°11'510.5
2017-Oct-16 10:30N 38°17' E 020°08'2810.3
2017-Oct-16 07:48N 38°41' E 019°50'310.0
2017-Oct-16 07:27N 38°44' E 019°48'610.1
2017-Oct-16 06:54N 38°49' E 019°44'410.2
2017-Oct-16 06:30N 38°52' E 019°41'1310.3
2017-Oct-16 05:12N 39°04' E 019°33'2 9.9
2017-Oct-16 05:00N 39°05' E 019°32'5 9.9
2017-Oct-16 04:30N 39°10' E 019°29'3010.2
2017-Oct-16 01:34N 39°36' E 019°09'110.5
2017-Oct-16 01:30N 39°36' E 019°09'610.3
2017-Oct-16 00:57N 39°41' E 019°05'510.6
2017-Oct-16 00:30N 39°45' E 019°02'510.7
2017-Oct-16 00:00N 39°50' E 018°58'510.5
2017-Oct-15 23:30N 39°55' E 018°55'510.4
2017-Oct-15 23:00N 39°59' E 018°51'510.6
2017-Oct-15 22:30N 40°04' E 018°48'510.7
2017-Oct-15 22:00N 40°08' E 018°45'510.8
2017-Oct-15 21:30N 40°13' E 018°41'510.6
2017-Oct-15 21:00N 40°18' E 018°37'610.1
2017-Oct-15 20:23N 40°22' E 018°32'511.0
2017-Oct-15 19:56N 40°26' E 018°28'510.9
2017-Oct-15 19:30N 40°30' E 018°25'510.8
2017-Oct-15 19:01N 40°34' E 018°21'610.8
2017-Oct-15 18:29N 40°38' E 018°16'510.8
2017-Oct-15 18:00N 40°42' E 018°11'611.5
2017-Oct-15 17:30N 40°46' E 018°05'611.3
2017-Oct-15 17:00N 40°50' E 018°00'611.0
2017-Oct-15 16:30N 40°54' E 017°55'810.7
2017-Oct-15 15:47N 40°60' E 017°48'159 8.6
2017-Oct-14 21:19N 42°52' E 015°17'910.4
2017-Oct-14 20:28N 42°59' E 015°08'910.3
2017-Oct-14 19:33N 43°05' E 014°59'110.2
2017-Oct-14 19:24N 43°06' E 014°57'510.1
2017-Oct-14 18:57N 43°10' E 014°53'510.2
2017-Oct-14 18:30N 43°13' E 014°49'610.2
2017-Oct-14 17:55N 43°17' E 014°43'4 9.9
2017-Oct-14 17:29N 43°20' E 014°39'510.1
2017-Oct-14 17:00N 43°24' E 014°34'510.3
2017-Oct-14 16:28N 43°28' E 014°29'610.5
2017-Oct-14 15:55N 43°31' E 014°23'510.8
2017-Oct-14 15:28N 43°35' E 014°18'710.8
2017-Oct-14 14:48N 43°40' E 014°11'4110.8
2017-Oct-14 10:59N 44°05' E 013°25'510.9
2017-Oct-14 10:30N 44°08' E 013°19'810.9
2017-Oct-14 09:45N 44°12' E 013°10'311.1
2017-Oct-14 09:29N 44°14' E 013°07'1910.9
2017-Oct-14 07:45N 44°25' E 012°45'311.1
2017-Oct-14 07:30N 44°26' E 012°42'510.8
2017-Oct-14 07:00N 44°30' E 012°36'510.0
2017-Oct-14 06:31N 44°30' E 012°29'5 9.8
2017-Oct-14 06:00N 44°30' E 012°22'4 7.3
2017-Oct-14 05:30N 44°30' E 012°17'2 3.3
2017-Oct-14 04:59N 44°28' E 012°15'0 0.2
2017-Oct-14 04:28N 44°28' E 012°15'0 0.0
2017-Oct-14 03:58N 44°28' E 012°15'0 0.0
2017-Oct-14 03:28N 44°28' E 012°15'0 0.0
2017-Oct-14 02:58N 44°28' E 012°15'0 0.0
2017-Oct-14 02:28N 44°28' E 012°15'0 0.0
2017-Oct-14 01:55N 44°28' E 012°15'0 0.0
2017-Oct-14 01:16N 44°28' E 012°15'0 0.0
2017-Oct-14 00:58N 44°28' E 012°15'0 0.0
2017-Oct-14 00:25N 44°28' E 012°15'0 0.0
2017-Oct-13 23:58N 44°28' E 012°15'0 0.0
2017-Oct-13 23:28N 44°28' E 012°15'0 0.0
2017-Oct-13 22:58N 44°28' E 012°15'0 0.0
2017-Oct-13 22:28N 44°28' E 012°15'0 0.0
2017-Oct-13 21:58N 44°28' E 012°15'0 0.0
2017-Oct-13 21:25N 44°28' E 012°15'0 0.0
2017-Oct-13 19:16N 44°28' E 012°15'0 0.0
2017-Oct-13 18:58N 44°28' E 012°15'0 0.0
2017-Oct-13 16:58N 44°28' E 012°15'0 0.0
2017-Oct-13 16:07N 44°28' E 012°15'0 0.0
2017-Oct-13 15:55N 44°28' E 012°15'0 0.0
2017-Oct-13 15:28N 44°28' E 012°15'0 0.0
2017-Oct-13 14:58N 44°28' E 012°15'0 0.0
2017-Oct-13 14:28N 44°28' E 012°15'0 0.0
2017-Oct-13 13:43N 44°28' E 012°15'0 0.0
2017-Oct-13 13:25N 44°28' E 012°15'0 0.0
2017-Oct-13 12:46N 44°28' E 012°15'0 0.0
2017-Oct-13 12:28N 44°28' E 012°15'0 0.0
2017-Oct-13 11:58N 44°28' E 012°15'0 0.0
2017-Oct-13 07:55N 44°28' E 012°15'0 0.0
2017-Oct-13 07:22N 44°28' E 012°15'0 0.0
2017-Oct-13 06:58N 44°28' E 012°15'0 0.0
2017-Oct-13 06:19N 44°28' E 012°15'0 0.0
2017-Oct-13 05:58N 44°28' E 012°15'0 0.0
2017-Oct-13 05:27N 44°28' E 012°15'0 0.0
2017-Oct-13 04:57N 44°28' E 012°15'0 0.0
2017-Oct-13 04:24N 44°28' E 012°15'0 0.0
2017-Oct-13 03:54N 44°28' E 012°15'0 0.0
2017-Oct-13 03:30N 44°28' E 012°15'0 0.0
2017-Oct-13 02:57N 44°28' E 012°15'0 0.0
2017-Oct-13 02:24N 44°28' E 012°15'0 0.0
2017-Oct-13 01:54N 44°28' E 012°15'0 0.0
2017-Oct-13 01:18N 44°28' E 012°15'0 0.0
2017-Oct-13 01:00N 44°28' E 012°15'0 0.0
2017-Oct-13 00:27N 44°28' E 012°15'0 0.0
2017-Oct-12 23:47N 44°28' E 012°15'0 0.0
2017-Oct-12 23:26N 44°28' E 012°15'0 0.0
2017-Oct-12 22:59N 44°28' E 012°15'0 0.0
2017-Oct-12 22:29N 44°28' E 012°15'0 0.0
2017-Oct-12 21:54N 44°28' E 012°15'0 0.0
2017-Oct-12 21:08N 44°28' E 012°15'0 0.0
2017-Oct-12 20:59N 44°28' E 012°15'0 0.0
2017-Oct-12 20:29N 44°28' E 012°15'0 0.0
2017-Oct-12 19:59N 44°28' E 012°15'0 0.0
2017-Oct-12 19:26N 44°28' E 012°15'0 0.0
2017-Oct-12 19:00N 44°28' E 012°15'0 0.0
2017-Oct-12 18:30N 44°28' E 012°15'0 0.0
2017-Oct-12 17:51N 44°28' E 012°15'0 0.0
2017-Oct-12 17:27N 44°28' E 012°15'0 0.0
2017-Oct-12 16:57N 44°28' E 012°15'0 0.0
2017-Oct-12 16:27N 44°28' E 012°15'0 0.0
2017-Oct-12 16:00N 44°28' E 012°15'0 0.0
2017-Oct-12 15:00N 44°28' E 012°15'0 0.0
2017-Oct-12 14:24N 44°28' E 012°15'0 0.0
2017-Oct-12 13:54N 44°28' E 012°15'0 0.0
2017-Oct-12 13:27N 44°28' E 012°15'0 0.0
2017-Oct-12 12:51N 44°28' E 012°15'0 0.0
2017-Oct-12 12:27N 44°28' E 012°15'0 0.0
2017-Oct-12 11:54N 44°28' E 012°15'0 0.0
2017-Oct-12 11:15N 44°28' E 012°15'0 0.0
2017-Oct-12 11:00N 44°28' E 012°15'0 0.0
2017-Oct-12 10:30N 44°28' E 012°15'0 0.0
2017-Oct-12 02:54N 44°28' E 012°15'0 0.0
2017-Oct-11 19:48N 44°28' E 012°15'  
Track history (hours):
 
Tides and Currents Weather Stations Pressure Air Temp Water Temp Dewpoint Dewpoint Depression Visibility Wind Speed Wind Dir Waves Ship Positions

Scala

Last reported at 2017-Oct-21 12:50 UTC. Time now 2017-Oct-22 19:11 UTC.
Position N 45°08' E 029°48'.

Length 115 m; draft 3.1 m.

Type: Cargo ship. MMSI: 636012769.

Date/timePositionNaut miles runAvg speedWind from/ knotsBaromVisibWave heightAir tempDewpointWater temp
2017-Oct-21 12:50N 45°08' E 029°48'78 9.8
2017-Oct-21 04:54N 43°51' E 029°43'510.3
2017-Oct-21 04:26N 43°46' E 029°42'510.2
2017-Oct-21 03:59N 43°42' E 029°41'510.2
2017-Oct-21 03:31N 43°37' E 029°40'510.1
2017-Oct-21 03:00N 43°32' E 029°39'5 9.9
2017-Oct-21 02:30N 43°27' E 029°38'5 9.6
2017-Oct-21 02:01N 43°22' E 029°37'5 9.5
2017-Oct-21 01:30N 43°17' E 029°36'5 9.7
2017-Oct-21 01:00N 43°13' E 029°35'5 9.9
2017-Oct-21 00:30N 43°08' E 029°34'510.1
2017-Oct-21 00:00N 43°03' E 029°33'510.3
2017-Oct-20 23:30N 42°58' E 029°32'510.1
2017-Oct-20 23:00N 42°53' E 029°31'510.0
2017-Oct-20 22:31N 42°48' E 029°30'510.0
2017-Oct-20 22:01N 42°43' E 029°29'510.0
2017-Oct-20 21:31N 42°38' E 029°28'510.2
2017-Oct-20 21:01N 42°33' E 029°27'510.3
2017-Oct-20 20:30N 42°28' E 029°26'510.4
2017-Oct-20 20:00N 42°23' E 029°25'510.2
2017-Oct-20 19:30N 42°17' E 029°24'510.3
2017-Oct-20 19:00N 42°12' E 029°22'510.2
2017-Oct-20 18:30N 42°08' E 029°21'510.2
2017-Oct-20 18:00N 42°03' E 029°19'510.3
2017-Oct-20 17:30N 41°58' E 029°18'510.2
2017-Oct-20 17:01N 41°52' E 029°18'510.4
2017-Oct-20 16:31N 41°47' E 029°18'510.0
2017-Oct-20 16:00N 41°42' E 029°17'5 9.7
2017-Oct-20 15:30N 41°37' E 029°17'5 9.5
2017-Oct-20 15:01N 41°33' E 029°16'5 9.2
2017-Oct-20 14:31N 41°28' E 029°15'9 9.3
2017-Oct-20 13:31N 41°19' E 029°12'5 9.8
2017-Oct-20 13:00N 41°15' E 029°09'19 1.4
2017-Oct-19 23:48N 40°58' E 028°56'0 0.0
2017-Oct-19 18:27N 40°58' E 028°56'7 0.8
2017-Oct-19 09:30N 40°52' E 028°52'3010.6
2017-Oct-19 06:39N 40°47' E 028°13'210.2
2017-Oct-19 06:30N 40°46' E 028°11'510.2
2017-Oct-19 06:00N 40°46' E 028°04'126 8.8
2017-Oct-18 15:41N 39°39' E 025°44'262 5.7
2017-Oct-16 17:31N 37°16' E 021°04'010.4
2017-Oct-16 17:30N 37°16' E 021°04'6210.8
2017-Oct-16 11:43N 38°06' E 020°16'510.9
2017-Oct-16 11:14N 38°10' E 020°12'210.6
2017-Oct-16 11:00N 38°12' E 020°11'510.5
2017-Oct-16 10:30N 38°17' E 020°08'2810.3
2017-Oct-16 07:48N 38°41' E 019°50'310.0
2017-Oct-16 07:27N 38°44' E 019°48'610.1
2017-Oct-16 06:54N 38°49' E 019°44'410.2
2017-Oct-16 06:30N 38°52' E 019°41'1310.3
2017-Oct-16 05:12N 39°04' E 019°33'2 9.9
2017-Oct-16 05:00N 39°05' E 019°32'5 9.9
2017-Oct-16 04:30N 39°10' E 019°29'3010.2
2017-Oct-16 01:34N 39°36' E 019°09'110.5
2017-Oct-16 01:30N 39°36' E 019°09'610.3
2017-Oct-16 00:57N 39°41' E 019°05'510.6
2017-Oct-16 00:30N 39°45' E 019°02'510.7
2017-Oct-16 00:00N 39°50' E 018°58'510.5
2017-Oct-15 23:30N 39°55' E 018°55'510.4
2017-Oct-15 23:00N 39°59' E 018°51'510.6
2017-Oct-15 22:30N 40°04' E 018°48'510.7
2017-Oct-15 22:00N 40°08' E 018°45'510.8
2017-Oct-15 21:30N 40°13' E 018°41'510.6
2017-Oct-15 21:00N 40°18' E 018°37'610.1
2017-Oct-15 20:23N 40°22' E 018°32'511.0
2017-Oct-15 19:56N 40°26' E 018°28'510.9
2017-Oct-15 19:30N 40°30' E 018°25'510.8
2017-Oct-15 19:01N 40°34' E 018°21'610.8
2017-Oct-15 18:29N 40°38' E 018°16'510.8
2017-Oct-15 18:00N 40°42' E 018°11'611.5
2017-Oct-15 17:30N 40°46' E 018°05'611.3
2017-Oct-15 17:00N 40°50' E 018°00'611.0
2017-Oct-15 16:30N 40°54' E 017°55'810.7
2017-Oct-15 15:47N 40°60' E 017°48'159 8.6
2017-Oct-14 21:19N 42°52' E 015°17'910.4
2017-Oct-14 20:28N 42°59' E 015°08'910.3
2017-Oct-14 19:33N 43°05' E 014°59'110.2
2017-Oct-14 19:24N 43°06' E 014°57'510.1
2017-Oct-14 18:57N 43°10' E 014°53'510.2
2017-Oct-14 18:30N 43°13' E 014°49'610.2
2017-Oct-14 17:55N 43°17' E 014°43'4 9.9
2017-Oct-14 17:29N 43°20' E 014°39'510.1
2017-Oct-14 17:00N 43°24' E 014°34'510.3
2017-Oct-14 16:28N 43°28' E 014°29'610.5
2017-Oct-14 15:55N 43°31' E 014°23'510.8
2017-Oct-14 15:28N 43°35' E 014°18'710.8
2017-Oct-14 14:48N 43°40' E 014°11'4110.8
2017-Oct-14 10:59N 44°05' E 013°25'510.9
2017-Oct-14 10:30N 44°08' E 013°19'810.9
2017-Oct-14 09:45N 44°12' E 013°10'311.1
2017-Oct-14 09:29N 44°14' E 013°07'1910.9
2017-Oct-14 07:45N 44°25' E 012°45'311.1
2017-Oct-14 07:30N 44°26' E 012°42'510.8
2017-Oct-14 07:00N 44°30' E 012°36'510.0
2017-Oct-14 06:31N 44°30' E 012°29'5 9.8
2017-Oct-14 06:00N 44°30' E 012°22'4 7.3
2017-Oct-14 05:30N 44°30' E 012°17'2 3.3
2017-Oct-14 04:59N 44°28' E 012°15'0 0.2
2017-Oct-14 04:28N 44°28' E 012°15'0 0.0
2017-Oct-14 03:58N 44°28' E 012°15'0 0.0
2017-Oct-14 03:28N 44°28' E 012°15'0 0.0
2017-Oct-14 02:58N 44°28' E 012°15'0 0.0
2017-Oct-14 02:28N 44°28' E 012°15'0 0.0
2017-Oct-14 01:55N 44°28' E 012°15'0 0.0
2017-Oct-14 01:16N 44°28' E 012°15'0 0.0
2017-Oct-14 00:58N 44°28' E 012°15'0 0.0
2017-Oct-14 00:25N 44°28' E 012°15'0 0.0
2017-Oct-13 23:58N 44°28' E 012°15'0 0.0
2017-Oct-13 23:28N 44°28' E 012°15'0 0.0
2017-Oct-13 22:58N 44°28' E 012°15'0 0.0
2017-Oct-13 22:28N 44°28' E 012°15'0 0.0
2017-Oct-13 21:58N 44°28' E 012°15'0 0.0
2017-Oct-13 21:25N 44°28' E 012°15'0 0.0
2017-Oct-13 19:16N 44°28' E 012°15'0 0.0
2017-Oct-13 18:58N 44°28' E 012°15'0 0.0
2017-Oct-13 16:58N 44°28' E 012°15'0 0.0
2017-Oct-13 16:07N 44°28' E 012°15'0 0.0
2017-Oct-13 15:55N 44°28' E 012°15'0 0.0
2017-Oct-13 15:28N 44°28' E 012°15'0 0.0
2017-Oct-13 14:58N 44°28' E 012°15'0 0.0
2017-Oct-13 14:28N 44°28' E 012°15'0 0.0
2017-Oct-13 13:43N 44°28' E 012°15'0 0.0
2017-Oct-13 13:25N 44°28' E 012°15'0 0.0
2017-Oct-13 12:46N 44°28' E 012°15'0 0.0
2017-Oct-13 12:28N 44°28' E 012°15'0 0.0
2017-Oct-13 11:58N 44°28' E 012°15'0 0.0
2017-Oct-13 07:55N 44°28' E 012°15'0 0.0
2017-Oct-13 07:22N 44°28' E 012°15'0 0.0
2017-Oct-13 06:58N 44°28' E 012°15'0 0.0
2017-Oct-13 06:19N 44°28' E 012°15'0 0.0
2017-Oct-13 05:58N 44°28' E 012°15'0 0.0
2017-Oct-13 05:27N 44°28' E 012°15'0 0.0
2017-Oct-13 04:57N 44°28' E 012°15'0 0.0
2017-Oct-13 04:24N 44°28' E 012°15'0 0.0
2017-Oct-13 03:54N 44°28' E 012°15'0 0.0
2017-Oct-13 03:30N 44°28' E 012°15'0 0.0
2017-Oct-13 02:57N 44°28' E 012°15'0 0.0
2017-Oct-13 02:24N 44°28' E 012°15'0 0.0
2017-Oct-13 01:54N 44°28' E 012°15'0 0.0
2017-Oct-13 01:18N 44°28' E 012°15'0 0.0
2017-Oct-13 01:00N 44°28' E 012°15'0 0.0
2017-Oct-13 00:27N 44°28' E 012°15'0 0.0
2017-Oct-12 23:47N 44°28' E 012°15'0 0.0
2017-Oct-12 23:26N 44°28' E 012°15'0 0.0
2017-Oct-12 22:59N 44°28' E 012°15'0 0.0
2017-Oct-12 22:29N 44°28' E 012°15'0 0.0
2017-Oct-12 21:54N 44°28' E 012°15'0 0.0
2017-Oct-12 21:08N 44°28' E 012°15'0 0.0
2017-Oct-12 20:59N 44°28' E 012°15'0 0.0
2017-Oct-12 20:29N 44°28' E 012°15'0 0.0
2017-Oct-12 19:59N 44°28' E 012°15'0 0.0
2017-Oct-12 19:26N 44°28' E 012°15'0 0.0
2017-Oct-12 19:00N 44°28' E 012°15'0 0.0
2017-Oct-12 18:30N 44°28' E 012°15'0 0.0
2017-Oct-12 17:51N 44°28' E 012°15'0 0.0
2017-Oct-12 17:27N 44°28' E 012°15'0 0.0
2017-Oct-12 16:57N 44°28' E 012°15'0 0.0
2017-Oct-12 16:27N 44°28' E 012°15'0 0.0
2017-Oct-12 16:00N 44°28' E 012°15'0 0.0
2017-Oct-12 15:00N 44°28' E 012°15'0 0.0
2017-Oct-12 14:24N 44°28' E 012°15'0 0.0
2017-Oct-12 13:54N 44°28' E 012°15'0 0.0
2017-Oct-12 13:27N 44°28' E 012°15'0 0.0
2017-Oct-12 12:51N 44°28' E 012°15'0 0.0
2017-Oct-12 12:27N 44°28' E 012°15'0 0.0
2017-Oct-12 11:54N 44°28' E 012°15'0 0.0
2017-Oct-12 11:15N 44°28' E 012°15'0 0.0
2017-Oct-12 11:00N 44°28' E 012°15'0 0.0
2017-Oct-12 10:30N 44°28' E 012°15'0 0.0
2017-Oct-12 02:54N 44°28' E 012°15'0 0.0
2017-Oct-11 19:48N 44°28' E 012°15'  

Dump ship's entire track history